sensor_id;sensor_type;location;lat;lon;timestamp;pressure;altitude;pressure_sealevel;temperature
75431;BMP280;64127;51.488;5.462;2022-11-20T00:00:55;101092.06;;;4.64
75431;BMP280;64127;51.488;5.462;2022-11-20T00:03:27;101100.63;;;4.63
75431;BMP280;64127;51.488;5.462;2022-11-20T00:06:01;101098.16;;;4.64
75431;BMP280;64127;51.488;5.462;2022-11-20T00:08:34;101093.75;;;4.63
75431;BMP280;64127;51.488;5.462;2022-11-20T00:11:18;101085.78;;;4.60
75431;BMP280;64127;51.488;5.462;2022-11-20T00:13:54;101088.50;;;4.62
75431;BMP280;64127;51.488;5.462;2022-11-20T00:16:29;101101.47;;;4.62
75431;BMP280;64127;51.488;5.462;2022-11-20T00:19:01;101089.97;;;4.58
75431;BMP280;64127;51.488;5.462;2022-11-20T00:21:33;101089.84;;;4.56
75431;BMP280;64127;51.488;5.462;2022-11-20T00:24:08;101086.25;;;4.54
75431;BMP280;64127;51.488;5.462;2022-11-20T00:26:40;101084.47;;;4.53
75431;BMP280;64127;51.488;5.462;2022-11-20T00:29:12;101086.25;;;4.54
75431;BMP280;64127;51.488;5.462;2022-11-20T00:31:44;101077.38;;;4.51
75431;BMP280;64127;51.488;5.462;2022-11-20T00:34:16;101079.25;;;4.53
75431;BMP280;64127;51.488;5.462;2022-11-20T00:36:48;101079.19;;;4.52
75431;BMP280;64127;51.488;5.462;2022-11-20T00:39:20;101080.88;;;4.51
75431;BMP280;64127;51.488;5.462;2022-11-20T00:41:53;101083.56;;;4.53
75431;BMP280;64127;51.488;5.462;2022-11-20T00:44:24;101079.06;;;4.50
75431;BMP280;64127;51.488;5.462;2022-11-20T00:46:57;101072.66;;;4.45
75431;BMP280;64127;51.488;5.462;2022-11-20T00:49:28;101080.66;;;4.48
75431;BMP280;64127;51.488;5.462;2022-11-20T00:52:00;101085.84;;;4.48
75431;BMP280;64127;51.488;5.462;2022-11-20T00:54:32;101080.66;;;4.48
75431;BMP280;64127;51.488;5.462;2022-11-20T00:57:04;101087.53;;;4.48
75431;BMP280;64127;51.488;5.462;2022-11-20T00:59:36;101083.84;;;4.44
75431;BMP280;64127;51.488;5.462;2022-11-20T01:02:08;101081.91;;;4.42
75431;BMP280;64127;51.488;5.462;2022-11-20T01:04:40;101071.25;;;4.37
75431;BMP280;64127;51.488;5.462;2022-11-20T01:07:12;101079.09;;;4.39
75431;BMP280;64127;51.488;5.462;2022-11-20T01:09:44;101078.00;;;4.35
75431;BMP280;64127;51.488;5.462;2022-11-20T01:12:16;101077.00;;;4.33
75431;BMP280;64127;51.488;5.462;2022-11-20T01:14:48;101069.72;;;4.28
75431;BMP280;64127;51.488;5.462;2022-11-20T01:17:20;101069.34;;;4.35
75431;BMP280;64127;51.488;5.462;2022-11-20T01:19:52;101078.00;;;4.35
75431;BMP280;64127;51.488;5.462;2022-11-20T01:22:23;101077.78;;;4.32
75431;BMP280;64127;51.488;5.462;2022-11-20T01:24:55;101070.91;;;4.33
75431;BMP280;64127;51.488;5.462;2022-11-20T01:27:27;101082.97;;;4.32
75431;BMP280;64127;51.488;5.462;2022-11-20T01:29:59;101057.56;;;4.15
75431;BMP280;64127;51.488;5.462;2022-11-20T01:32:32;101077.38;;;4.26
75431;BMP280;64127;51.488;5.462;2022-11-20T01:35:04;101067.69;;;4.24
75431;BMP280;64127;51.488;5.462;2022-11-20T01:37:36;101072.41;;;4.29
75431;BMP280;64127;51.488;5.462;2022-11-20T01:40:09;101058.81;;;4.20
75431;BMP280;64127;51.488;5.462;2022-11-20T01:42:53;101071.19;;;4.24
75431;BMP280;64127;51.488;5.462;2022-11-20T01:46:08;101066.59;;;4.20
75431;BMP280;64127;51.488;5.462;2022-11-20T01:51:45;101069.53;;;4.13
75431;BMP280;64127;51.488;5.462;2022-11-20T01:54:40;101073.13;;;4.15
75431;BMP280;64127;51.488;5.462;2022-11-20T01:57:15;101078.31;;;4.15
75431;BMP280;64127;51.488;5.462;2022-11-20T01:59:55;101077.41;;;4.15
75431;BMP280;64127;51.488;5.462;2022-11-20T02:02:28;101079.91;;;4.13
75431;BMP280;64127;51.488;5.462;2022-11-20T02:05:30;101065.50;;;4.05
75431;BMP280;64127;51.488;5.462;2022-11-20T02:08:00;101064.81;;;4.07
75431;BMP280;64127;51.488;5.462;2022-11-20T02:10:34;101062.53;;;4.12
75431;BMP280;64127;51.488;5.462;2022-11-20T02:13:07;101072.13;;;4.13
75431;BMP280;64127;51.488;5.462;2022-11-20T02:15:58;101067.72;;;4.12
75431;BMP280;64127;51.488;5.462;2022-11-20T02:18:31;101067.94;;;4.15
75431;BMP280;64127;51.488;5.462;2022-11-20T02:21:14;101045.19;;;4.11
75431;BMP280;64127;51.488;5.462;2022-11-20T02:24:17;101061.19;;;4.17
75431;BMP280;64127;51.488;5.462;2022-11-20T02:27:04;101059.78;;;4.22
75431;BMP280;64127;51.488;5.462;2022-11-20T02:30:02;101065.09;;;4.24
75431;BMP280;64127;51.488;5.462;2022-11-20T02:32:37;101047.16;;;4.27
75431;BMP280;64127;51.488;5.462;2022-11-20T02:38:02;101053.91;;;4.25
75431;BMP280;64127;51.488;5.462;2022-11-20T02:40:34;101051.44;;;4.26
75431;BMP280;64127;51.488;5.462;2022-11-20T02:43:07;101020.16;;;4.12
75431;BMP280;64127;51.488;5.462;2022-11-20T02:45:39;101050.81;;;4.17
75431;BMP280;64127;51.488;5.462;2022-11-20T02:48:11;101044.75;;;4.05
75431;BMP280;64127;51.488;5.462;2022-11-20T02:50:43;101059.31;;;4.03
75431;BMP280;64127;51.488;5.462;2022-11-20T02:53:15;101063.25;;;3.98
75431;BMP280;64127;51.488;5.462;2022-11-20T02:55:47;101048.19;;;3.92
75431;BMP280;64127;51.488;5.462;2022-11-20T02:58:19;101063.47;;;4.01
75431;BMP280;64127;51.488;5.462;2022-11-20T03:00:52;101054.13;;;4.03
75431;BMP280;64127;51.488;5.462;2022-11-20T03:03:24;101056.44;;;4.12
75431;BMP280;64127;51.488;5.462;2022-11-20T03:05:59;101049.00;;;4.16
75431;BMP280;64127;51.488;5.462;2022-11-20T03:08:31;101043.25;;;4.20
75431;BMP280;64127;51.488;5.462;2022-11-20T03:11:06;101055.72;;;4.26
75431;BMP280;64127;51.488;5.462;2022-11-20T03:13:38;101047.66;;;4.21
75431;BMP280;64127;51.488;5.462;2022-11-20T03:16:14;101046.25;;;4.26
75431;BMP280;64127;51.488;5.462;2022-11-20T03:18:47;101054.16;;;4.28
75431;BMP280;64127;51.488;5.462;2022-11-20T03:21:19;101051.06;;;4.33
75431;BMP280;64127;51.488;5.462;2022-11-20T03:23:53;101026.91;;;4.21
75431;BMP280;64127;51.488;5.462;2022-11-20T03:26:26;101046.09;;;4.36
75431;BMP280;64127;51.488;5.462;2022-11-20T03:29:03;101045.09;;;4.34
75431;BMP280;64127;51.488;5.462;2022-11-20T03:31:39;101033.91;;;4.35
75431;BMP280;64127;51.488;5.462;2022-11-20T03:34:12;101031.81;;;4.30
75431;BMP280;64127;51.488;5.462;2022-11-20T03:36:44;101034.03;;;4.37
75431;BMP280;64127;51.488;5.462;2022-11-20T03:39:16;101035.19;;;4.29
75431;BMP280;64127;51.488;5.462;2022-11-20T03:41:48;101025.72;;;4.29
75431;BMP280;64127;51.488;5.462;2022-11-20T03:44:21;101018.06;;;4.31
75431;BMP280;64127;51.488;5.462;2022-11-20T03:46:53;100981.59;;;4.16
75431;BMP280;64127;51.488;5.462;2022-11-20T03:49:25;101012.06;;;4.32
75431;BMP280;64127;51.488;5.462;2022-11-20T03:51:57;101013.88;;;4.33
75431;BMP280;64127;51.488;5.462;2022-11-20T03:54:29;101017.56;;;4.36
75431;BMP280;64127;51.488;5.462;2022-11-20T03:57:01;101006.00;;;4.31
75431;BMP280;64127;51.488;5.462;2022-11-20T03:59:33;101008.59;;;4.31
75431;BMP280;64127;51.488;5.462;2022-11-20T04:02:05;100998.41;;;4.21
75431;BMP280;64127;51.488;5.462;2022-11-20T04:04:37;101007.94;;;4.22
75431;BMP280;64127;51.488;5.462;2022-11-20T04:07:09;101004.44;;;4.22
75431;BMP280;64127;51.488;5.462;2022-11-20T04:09:41;101004.38;;;4.20
75431;BMP280;64127;51.488;5.462;2022-11-20T04:12:13;100984.56;;;4.09
75431;BMP280;64127;51.488;5.462;2022-11-20T04:14:45;101006.41;;;4.13
75431;BMP280;64127;51.488;5.462;2022-11-20T04:17:17;101011.59;;;4.13
75431;BMP280;64127;51.488;5.462;2022-11-20T04:19:49;100995.63;;;4.06
75431;BMP280;64127;51.488;5.462;2022-11-20T04:22:21;101005.53;;;4.12
75431;BMP280;64127;51.488;5.462;2022-11-20T04:24:53;101006.63;;;4.16
75431;BMP280;64127;51.488;5.462;2022-11-20T04:27:25;101003.94;;;4.14
75431;BMP280;64127;51.488;5.462;2022-11-20T04:29:57;100995.16;;;4.12
75431;BMP280;64127;51.488;5.462;2022-11-20T04:32:29;100991.19;;;4.17
75431;BMP280;64127;51.488;5.462;2022-11-20T04:35:01;100999.75;;;4.16
75431;BMP280;64127;51.488;5.462;2022-11-20T04:37:33;100991.00;;;4.14
75431;BMP280;64127;51.488;5.462;2022-11-20T04:40:05;100993.78;;;4.17
75431;BMP280;64127;51.488;5.462;2022-11-20T04:42:37;100995.56;;;4.18
75431;BMP280;64127;51.488;5.462;2022-11-20T04:45:10;100986.00;;;4.17
75431;BMP280;64127;51.488;5.462;2022-11-20T04:47:41;100988.81;;;4.20
75431;BMP280;64127;51.488;5.462;2022-11-20T04:50:14;100987.78;;;4.18
75431;BMP280;64127;51.488;5.462;2022-11-20T04:52:46;100987.00;;;4.19
75431;BMP280;64127;51.488;5.462;2022-11-20T04:55:18;100987.91;;;4.20
75431;BMP280;64127;51.488;5.462;2022-11-20T04:57:50;100991.19;;;4.17
75431;BMP280;64127;51.488;5.462;2022-11-20T05:00:23;100972.41;;;4.08
75431;BMP280;64127;51.488;5.462;2022-11-20T05:02:55;100986.59;;;4.13
75431;BMP280;64127;51.488;5.462;2022-11-20T05:05:27;100985.69;;;4.13
75431;BMP280;64127;51.488;5.462;2022-11-20T05:07:59;100974.78;;;4.05
75431;BMP280;64127;51.488;5.462;2022-11-20T05:10:31;100980.28;;;4.09
75431;BMP280;64127;51.488;5.462;2022-11-20T05:13:03;100975.59;;;4.04
75431;BMP280;64127;51.488;5.462;2022-11-20T05:15:35;100975.69;;;4.05
75431;BMP280;64127;51.488;5.462;2022-11-20T05:18:07;100958.03;;;4.00
75431;BMP280;64127;51.488;5.462;2022-11-20T05:20:39;100959.81;;;4.01
75431;BMP280;64127;51.488;5.462;2022-11-20T05:23:11;100966.81;;;4.02
75431;BMP280;64127;51.488;5.462;2022-11-20T05:25:43;100954.34;;;3.96
75431;BMP280;64127;51.488;5.462;2022-11-20T05:28:15;100965.31;;;4.05
75431;BMP280;64127;51.488;5.462;2022-11-20T05:30:48;100958.66;;;4.09
75431;BMP280;64127;51.488;5.462;2022-11-20T05:33:21;100965.66;;;4.10
75431;BMP280;64127;51.488;5.462;2022-11-20T05:35:58;100958.06;;;4.13
75431;BMP280;64127;51.488;5.462;2022-11-20T05:38:31;100957.50;;;4.17
75431;BMP280;64127;51.488;5.462;2022-11-20T05:41:09;100948.28;;;4.09
75431;BMP280;64127;51.488;5.462;2022-11-20T05:43:44;100958.41;;;4.18
75431;BMP280;64127;51.488;5.462;2022-11-20T05:46:20;100968.44;;;4.13
75431;BMP280;64127;51.488;5.462;2022-11-20T05:48:59;100961.81;;;4.05
75431;BMP280;64127;51.488;5.462;2022-11-20T05:51:31;100971.63;;;4.09
75431;BMP280;64127;51.488;5.462;2022-11-20T05:54:03;100972.59;;;4.11
75431;BMP280;64127;51.488;5.462;2022-11-20T05:56:35;100976.00;;;4.10
75431;BMP280;64127;51.488;5.462;2022-11-20T05:59:07;100980.16;;;4.08
75431;BMP280;64127;51.488;5.462;2022-11-20T06:01:39;100990.16;;;4.15
75431;BMP280;64127;51.488;5.462;2022-11-20T06:04:11;100984.91;;;4.14
75431;BMP280;64127;51.488;5.462;2022-11-20T06:06:43;100988.47;;;4.16
75431;BMP280;64127;51.488;5.462;2022-11-20T06:09:15;100994.69;;;4.18
75431;BMP280;64127;51.488;5.462;2022-11-20T06:11:47;100984.41;;;4.19
75431;BMP280;64127;51.488;5.462;2022-11-20T06:14:19;100991.81;;;4.26
75431;BMP280;64127;51.488;5.462;2022-11-20T06:16:51;100984.94;;;4.27
75431;BMP280;64127;51.488;5.462;2022-11-20T06:19:23;100979.06;;;4.29
75431;BMP280;64127;51.488;5.462;2022-11-20T06:21:55;100975.88;;;4.33
75431;BMP280;64127;51.488;5.462;2022-11-20T06:24:26;100974.28;;;4.35
75431;BMP280;64127;51.488;5.462;2022-11-20T06:26:58;100976.47;;;4.42
75431;BMP280;64127;51.488;5.462;2022-11-20T06:29:30;100974.31;;;4.48
75431;BMP280;64127;51.488;5.462;2022-11-20T06:32:05;100981.28;;;4.49
75431;BMP280;64127;51.488;5.462;2022-11-20T06:34:36;100983.22;;;4.52
75431;BMP280;64127;51.488;5.462;2022-11-20T06:37:08;100984.28;;;4.55
75431;BMP280;64127;51.488;5.462;2022-11-20T06:39:40;100970.00;;;4.49
75431;BMP280;64127;51.488;5.462;2022-11-20T06:42:12;100960.53;;;4.49
75431;BMP280;64127;51.488;5.462;2022-11-20T06:44:44;100968.22;;;4.48
75431;BMP280;64127;51.488;5.462;2022-11-20T06:47:16;100967.66;;;4.52
75431;BMP280;64127;51.488;5.462;2022-11-20T06:49:48;100963.84;;;4.47
75431;BMP280;64127;51.488;5.462;2022-11-20T06:52:20;100965.44;;;4.45
75431;BMP280;64127;51.488;5.462;2022-11-20T06:54:52;100965.72;;;4.49
75431;BMP280;64127;51.488;5.462;2022-11-20T06:57:24;100955.94;;;4.45
75431;BMP280;64127;51.488;5.462;2022-11-20T06:59:56;100965.44;;;4.45
75431;BMP280;64127;51.488;5.462;2022-11-20T07:02:28;100967.72;;;4.40
75431;BMP280;64127;51.488;5.462;2022-11-20T07:05:00;100969.53;;;4.41
75431;BMP280;64127;51.488;5.462;2022-11-20T07:07:32;100974.91;;;4.44
75431;BMP280;64127;51.488;5.462;2022-11-20T07:10:04;100967.91;;;4.43
75431;BMP280;64127;51.488;5.462;2022-11-20T07:12:37;100972.19;;;4.43
75431;BMP280;64127;51.488;5.462;2022-11-20T07:15:09;100967.00;;;4.43
75431;BMP280;64127;51.488;5.462;2022-11-20T07:17:41;100965.63;;;4.48
75431;BMP280;64127;51.488;5.462;2022-11-20T07:20:13;100962.94;;;4.46
75431;BMP280;64127;51.488;5.462;2022-11-20T07:22:45;100950.75;;;4.45
75431;BMP280;64127;51.488;5.462;2022-11-20T07:25:17;100961.44;;;4.50
75431;BMP280;64127;51.488;5.462;2022-11-20T07:27:49;100957.94;;;4.49
75431;BMP280;64127;51.488;5.462;2022-11-20T07:30:21;100955.34;;;4.49
75431;BMP280;64127;51.488;5.462;2022-11-20T07:32:55;100947.56;;;4.49
75431;BMP280;64127;51.488;5.462;2022-11-20T07:35:27;100958.75;;;4.48
75431;BMP280;64127;51.488;5.462;2022-11-20T07:37:59;100954.56;;;4.50
75431;BMP280;64127;51.488;5.462;2022-11-20T07:40:31;100953.16;;;4.55
75431;BMP280;64127;51.488;5.462;2022-11-20T07:43:03;100946.38;;;4.57
75431;BMP280;64127;51.488;5.462;2022-11-20T07:45:35;100944.69;;;4.58
75431;BMP280;64127;51.488;5.462;2022-11-20T07:48:07;100946.72;;;4.62
75431;BMP280;64127;51.488;5.462;2022-11-20T07:50:39;100944.97;;;4.63
75431;BMP280;64127;51.488;5.462;2022-11-20T07:53:11;100952.38;;;4.70
75431;BMP280;64127;51.488;5.462;2022-11-20T07:55:44;100962.75;;;4.70
75431;BMP280;64127;51.488;5.462;2022-11-20T07:58:16;100955.78;;;4.69
75431;BMP280;64127;51.488;5.462;2022-11-20T08:00:48;100965.47;;;4.71
75431;BMP280;64127;51.488;5.462;2022-11-20T08:03:20;100950.88;;;4.73
75431;BMP280;64127;51.488;5.462;2022-11-20T08:06:01;100964.94;;;4.77
75431;BMP280;64127;51.488;5.462;2022-11-20T08:08:33;100964.75;;;4.74
75431;BMP280;64127;51.488;5.462;2022-11-20T08:11:12;100958.25;;;4.80
75431;BMP280;64127;51.488;5.462;2022-11-20T08:14:03;100951.56;;;4.84
75431;BMP280;64127;51.488;5.462;2022-11-20T08:16:47;100949.19;;;4.87
75431;BMP280;64127;51.488;5.462;2022-11-20T08:19:20;100951.97;;;4.90
75431;BMP280;64127;51.488;5.462;2022-11-20T08:21:52;100961.94;;;4.97
75431;BMP280;64127;51.488;5.462;2022-11-20T08:24:24;100941.81;;;4.93
75431;BMP280;64127;51.488;5.462;2022-11-20T08:26:58;100935.72;;;4.92
75431;BMP280;64127;51.488;5.462;2022-11-20T08:29:30;100958.06;;;5.03
75431;BMP280;64127;51.488;5.462;2022-11-20T08:32:02;100948.19;;;4.98
75431;BMP280;64127;51.488;5.462;2022-11-20T08:34:34;100950.19;;;5.02
75431;BMP280;64127;51.488;5.462;2022-11-20T08:37:06;100945.19;;;5.05
75431;BMP280;64127;51.488;5.462;2022-11-20T08:39:38;100953.16;;;5.08
75431;BMP280;64127;51.488;5.462;2022-11-20T08:42:10;100949.06;;;5.11
75431;BMP280;64127;51.488;5.462;2022-11-20T08:44:42;100955.16;;;5.12
75431;BMP280;64127;51.488;5.462;2022-11-20T08:47:14;100942.88;;;5.09
75431;BMP280;64127;51.488;5.462;2022-11-20T08:49:46;100952.94;;;5.18
75431;BMP280;64127;51.488;5.462;2022-11-20T08:52:18;100953.16;;;5.21
75431;BMP280;64127;51.488;5.462;2022-11-20T08:54:50;100955.94;;;5.24
75431;BMP280;64127;51.488;5.462;2022-11-20T08:57:22;100945.75;;;5.27
75431;BMP280;64127;51.488;5.462;2022-11-20T08:59:55;100942.34;;;5.28
75431;BMP280;64127;51.488;5.462;2022-11-20T09:02:47;100936.47;;;5.31
75431;BMP280;64127;51.488;5.462;2022-11-20T09:05:19;100943.63;;;5.35
75431;BMP280;64127;51.488;5.462;2022-11-20T09:07:50;100943.63;;;5.35
75431;BMP280;64127;51.488;5.462;2022-11-20T09:10:22;100942.94;;;5.37
75431;BMP280;64127;51.488;5.462;2022-11-20T09:12:56;100945.63;;;5.39
75431;BMP280;64127;51.488;5.462;2022-11-20T09:15:28;100932.75;;;5.40
75431;BMP280;64127;51.488;5.462;2022-11-20T09:18:02;100934.09;;;5.48
75431;BMP280;64127;51.488;5.462;2022-11-20T09:20:36;100931.91;;;5.54
75431;BMP280;64127;51.488;5.462;2022-11-20T09:23:08;100933.06;;;5.59
75431;BMP280;64127;51.488;5.462;2022-11-20T09:25:41;100930.66;;;5.62
75431;BMP280;64127;51.488;5.462;2022-11-20T09:28:13;100923.28;;;5.55
75431;BMP280;64127;51.488;5.462;2022-11-20T09:30:45;100924.09;;;5.54
75431;BMP280;64127;51.488;5.462;2022-11-20T09:33:17;100916.03;;;5.50
75431;BMP280;64127;51.488;5.462;2022-11-20T09:35:49;100918.50;;;5.48
75431;BMP280;64127;51.488;5.462;2022-11-20T09:38:21;100918.69;;;5.51
75431;BMP280;64127;51.488;5.462;2022-11-20T09:51:12;100891.50;;;5.59
75431;BMP280;64127;51.488;5.462;2022-11-20T09:57:20;100892.16;;;5.70
75431;BMP280;64127;51.488;5.462;2022-11-20T09:59:56;100882.47;;;5.68
75431;BMP280;64127;51.488;5.462;2022-11-20T10:05:21;100872.34;;;5.72
75431;BMP280;64127;51.488;5.462;2022-11-20T10:08:24;100873.72;;;5.80
75431;BMP280;64127;51.488;5.462;2022-11-20T10:17:08;100852.19;;;5.83
75431;BMP280;64127;51.488;5.462;2022-11-20T10:30:14;100816.28;;;5.90
75431;BMP280;64127;51.488;5.462;2022-11-20T10:32:54;100823.75;;;5.99
75431;BMP280;64127;51.488;5.462;2022-11-20T10:35:41;100820.31;;;6.00
75431;BMP280;64127;51.488;5.462;2022-11-20T10:38:40;100798.63;;;5.99
75431;BMP280;64127;51.488;5.462;2022-11-20T10:41:24;100798.88;;;6.04
75431;BMP280;64127;51.488;5.462;2022-11-20T10:44:11;100786.06;;;6.07
75431;BMP280;64127;51.488;5.462;2022-11-20T10:46:45;100783.19;;;6.17
75431;BMP280;64127;51.488;5.462;2022-11-20T10:49:20;100768.31;;;6.15
75431;BMP280;64127;51.488;5.462;2022-11-20T10:52:08;100774.75;;;6.21
75431;BMP280;64127;51.488;5.462;2022-11-20T11:00:50;100758.97;;;6.18
75431;BMP280;64127;51.488;5.462;2022-11-20T11:03:30;100752.34;;;6.23
75431;BMP280;64127;51.488;5.462;2022-11-20T11:06:46;100744.44;;;6.22
75431;BMP280;64127;51.488;5.462;2022-11-20T11:09:38;100748.75;;;6.21
75431;BMP280;64127;51.488;5.462;2022-11-20T11:12:11;100753.47;;;6.28
75431;BMP280;64127;51.488;5.462;2022-11-20T11:14:53;100750.88;;;6.28
75431;BMP280;64127;51.488;5.462;2022-11-20T11:17:31;100718.63;;;6.10
75431;BMP280;64127;51.488;5.462;2022-11-20T11:22:51;100738.66;;;6.27
75431;BMP280;64127;51.488;5.462;2022-11-20T11:25:36;100741.38;;;6.29
75431;BMP280;64127;51.488;5.462;2022-11-20T11:30:49;100742.78;;;6.38
75431;BMP280;64127;51.488;5.462;2022-11-20T11:33:31;100746.53;;;6.43
75431;BMP280;64127;51.488;5.462;2022-11-20T11:36:19;100740.34;;;6.41
75431;BMP280;64127;51.488;5.462;2022-11-20T11:38:53;100734.31;;;6.42
75431;BMP280;64127;51.488;5.462;2022-11-20T11:41:31;100712.03;;;6.31
75431;BMP280;64127;51.488;5.462;2022-11-20T11:44:21;100721.22;;;6.41
75431;BMP280;64127;51.488;5.462;2022-11-20T11:50:27;100717.81;;;6.42
75431;BMP280;64127;51.488;5.462;2022-11-20T11:53:09;100706.69;;;6.44
75431;BMP280;64127;51.488;5.462;2022-11-20T11:56:08;100677.88;;;6.41
75431;BMP280;64127;51.488;5.462;2022-11-20T11:58:51;100671.88;;;6.42
75431;BMP280;64127;51.488;5.462;2022-11-20T12:01:43;100689.19;;;6.58
75431;BMP280;64127;51.488;5.462;2022-11-20T12:08:00;100672.88;;;6.60
75431;BMP280;64127;51.488;5.462;2022-11-20T12:17:00;100625.53;;;6.68
75431;BMP280;64127;51.488;5.462;2022-11-20T12:19:34;100622.50;;;6.76
75431;BMP280;64127;51.488;5.462;2022-11-20T12:25:20;100613.16;;;6.80
75431;BMP280;64127;51.488;5.462;2022-11-20T12:31:50;100616.00;;;6.84
75431;BMP280;64127;51.488;5.462;2022-11-20T12:34:36;100607.03;;;6.79
75431;BMP280;64127;51.488;5.462;2022-11-20T12:38:03;100611.19;;;6.76
75431;BMP280;64127;51.488;5.462;2022-11-20T12:41:12;100601.78;;;6.78
75431;BMP280;64127;51.488;5.462;2022-11-20T12:50:42;100579.91;;;6.92
75431;BMP280;64127;51.488;5.462;2022-11-20T13:08:39;100524.31;;;7.25
75431;BMP280;64127;51.488;5.462;2022-11-20T13:11:58;100525.25;;;7.27
75431;BMP280;64127;51.488;5.462;2022-11-20T13:14:44;100506.72;;;7.39
75431;BMP280;64127;51.488;5.462;2022-11-20T13:17:22;100510.28;;;7.78
75431;BMP280;64127;51.488;5.462;2022-11-20T13:19:57;100494.88;;;7.45
75431;BMP280;64127;51.488;5.462;2022-11-20T13:22:48;100499.28;;;7.83
75431;BMP280;64127;51.488;5.462;2022-11-20T13:25:33;100493.69;;;7.56
75431;BMP280;64127;51.488;5.462;2022-11-20T13:30:52;100486.38;;;7.49
75431;BMP280;64127;51.488;5.462;2022-11-20T13:33:37;100479.53;;;7.51
75431;BMP280;64127;51.488;5.462;2022-11-20T13:36:25;100477.00;;;7.53
75431;BMP280;64127;51.488;5.462;2022-11-20T13:38:59;100465.53;;;7.49
75431;BMP280;64127;51.488;5.462;2022-11-20T13:41:34;100472.81;;;7.56
75431;BMP280;64127;51.488;5.462;2022-11-20T13:46:46;100453.72;;;7.57
75431;BMP280;64127;51.488;5.462;2022-11-20T13:49:30;100453.59;;;7.54
75431;BMP280;64127;51.488;5.462;2022-11-20T13:53:04;100447.47;;;7.54
75431;BMP280;64127;51.488;5.462;2022-11-20T14:01:23;100421.84;;;7.63
75431;BMP280;64127;51.488;5.462;2022-11-20T14:03:56;100432.59;;;7.71
75431;BMP280;64127;51.488;5.462;2022-11-20T14:06:46;100416.91;;;7.69
75431;BMP280;64127;51.488;5.462;2022-11-20T14:09:30;100424.06;;;7.73
75431;BMP280;64127;51.488;5.462;2022-11-20T14:12:15;100414.53;;;7.74
75431;BMP280;64127;51.488;5.462;2022-11-20T14:14:53;100412.66;;;7.71
75431;BMP280;64127;51.488;5.462;2022-11-20T14:17:34;100403.13;;;7.72
75431;BMP280;64127;51.488;5.462;2022-11-20T14:20:12;100389.31;;;7.74
75431;BMP280;64127;51.488;5.462;2022-11-20T14:22:50;100390.34;;;7.78
75431;BMP280;64127;51.488;5.462;2022-11-20T14:25:26;100395.63;;;7.79
75431;BMP280;64127;51.488;5.462;2022-11-20T14:28:04;100393.97;;;7.81
75431;BMP280;64127;51.488;5.462;2022-11-20T14:30:42;100380.66;;;7.75
75431;BMP280;64127;51.488;5.462;2022-11-20T14:33:16;100376.63;;;7.82
75431;BMP280;64127;51.488;5.462;2022-11-20T14:35:52;100394.88;;;7.82
75431;BMP280;64127;51.488;5.462;2022-11-20T14:38:28;100373.84;;;7.77
75431;BMP280;64127;51.488;5.462;2022-11-20T14:41:14;100380.06;;;7.81
75431;BMP280;64127;51.488;5.462;2022-11-20T14:43:57;100373.19;;;7.83
75431;BMP280;64127;51.488;5.462;2022-11-20T14:46:31;100349.13;;;7.69
75431;BMP280;64127;51.488;5.462;2022-11-20T14:49:04;100364.69;;;7.87
75431;BMP280;64127;51.488;5.462;2022-11-20T14:51:39;100366.44;;;7.88
75431;BMP280;64127;51.488;5.462;2022-11-20T14:54:20;100362.91;;;7.86
75431;BMP280;64127;51.488;5.462;2022-11-20T14:57:03;100334.91;;;7.82
75431;BMP280;64127;51.488;5.462;2022-11-20T14:59:35;100340.25;;;7.85
75431;BMP280;64127;51.488;5.462;2022-11-20T15:02:12;100328.09;;;7.85
75431;BMP280;64127;51.488;5.462;2022-11-20T15:04:50;100319.38;;;7.85
75431;BMP280;64127;51.488;5.462;2022-11-20T15:07:37;100301.00;;;7.82
75431;BMP280;64127;51.488;5.462;2022-11-20T15:10:24;100296.63;;;7.81
75431;BMP280;64127;51.488;5.462;2022-11-20T15:13:03;100288.50;;;7.75
75431;BMP280;64127;51.488;5.462;2022-11-20T15:15:52;100291.25;;;7.78
75431;BMP280;64127;51.488;5.462;2022-11-20T15:18:47;100283.44;;;7.78
75431;BMP280;64127;51.488;5.462;2022-11-20T15:21:20;100277.53;;;7.82
75431;BMP280;64127;51.488;5.462;2022-11-20T15:23:57;100281.16;;;7.85
75431;BMP280;64127;51.488;5.462;2022-11-20T15:26:29;100259.41;;;7.85
75431;BMP280;64127;51.488;5.462;2022-11-20T15:29:04;100263.78;;;7.86
75431;BMP280;64127;51.488;5.462;2022-11-20T15:31:36;100262.97;;;7.87
75431;BMP280;64127;51.488;5.462;2022-11-20T15:34:11;100233.75;;;7.75
75431;BMP280;64127;51.488;5.462;2022-11-20T15:36:44;100247.38;;;7.88
75431;BMP280;64127;51.488;5.462;2022-11-20T15:39:16;100233.31;;;7.85
75431;BMP280;64127;51.488;5.462;2022-11-20T15:41:48;100227.22;;;7.84
75431;BMP280;64127;51.488;5.462;2022-11-20T15:44:20;100233.66;;;7.92
75431;BMP280;64127;51.488;5.462;2022-11-20T15:46:52;100230.13;;;7.92
75431;BMP280;64127;51.488;5.462;2022-11-20T15:49:24;100217.88;;;7.89
75431;BMP280;64127;51.488;5.462;2022-11-20T15:51:57;100220.81;;;7.97
75431;BMP280;64127;51.488;5.462;2022-11-20T15:54:29;100217.28;;;7.96
75431;BMP280;64127;51.488;5.462;2022-11-20T15:57:01;100208.31;;;8.31
75431;BMP280;64127;51.488;5.462;2022-11-20T15:59:34;100189.66;;;8.01
75431;BMP280;64127;51.488;5.462;2022-11-20T16:02:11;100190.56;;;8.02
75431;BMP280;64127;51.488;5.462;2022-11-20T16:04:49;100184.63;;;8.06
75431;BMP280;64127;51.488;5.462;2022-11-20T16:07:21;100188.22;;;8.08
75431;BMP280;64127;51.488;5.462;2022-11-20T16:09:53;100190.09;;;8.12
75431;BMP280;64127;51.488;5.462;2022-11-20T16:12:28;100178.00;;;8.14
75431;BMP280;64127;51.488;5.462;2022-11-20T16:15:18;100177.25;;;8.16
75431;BMP280;64127;51.488;5.462;2022-11-20T16:18:12;100165.78;;;8.13
75431;BMP280;64127;51.488;5.462;2022-11-20T16:20:48;100173.03;;;8.20
75431;BMP280;64127;51.488;5.462;2022-11-20T16:23:20;100175.75;;;8.23
75431;BMP280;64127;51.488;5.462;2022-11-20T16:25:53;100164.41;;;8.23
75431;BMP280;64127;51.488;5.462;2022-11-20T16:28:25;100171.50;;;8.25
75431;BMP280;64127;51.488;5.462;2022-11-20T16:30:57;100165.44;;;8.26
75431;BMP280;64127;51.488;5.462;2022-11-20T16:33:29;100154.94;;;8.25
75431;BMP280;64127;51.488;5.462;2022-11-20T16:36:14;100150.47;;;8.22
75431;BMP280;64127;51.488;5.462;2022-11-20T16:38:51;100140.22;;;8.27
75431;BMP280;64127;51.488;5.462;2022-11-20T16:41:26;100132.53;;;8.30
75431;BMP280;64127;51.488;5.462;2022-11-20T16:44:01;100141.69;;;8.41